Time;durP1;ratioP1;P1;durP2;ratioP2;P2;SDS_P1;SDS_P2;PMS_P1;PMS_P2;Temp;Humidity;BMP_temperature;BMP_pressure;BME280_temperature;BME280_humidity;BME280_pressure;Samples;Min_cycle;Max_cycle;Signal;HPM_P1;HPM_P2
2023/08/09 00:00:32;;;;;;;2.60;2.40;;;;;;;;;;5076158;28;20199;-61
2023/08/09 00:02:59;;;;;;;2.10;1.92;;;;;;;;;;5087853;28;20297;-60
2023/08/09 00:05:26;;;;;;;1.65;1.55;;;;;;;;;;5087405;28;20657;-61
2023/08/09 00:07:53;;;;;;;2.20;2.10;;;;;;;;;;5088345;28;20559;-61
2023/08/09 00:10:21;;;;;;;3.35;1.83;;;;;;;;;;5088514;28;20221;-61
2023/08/09 00:12:48;;;;;;;2.13;2.00;;;;;;;;;;5076112;28;20203;-61
2023/08/09 00:15:16;;;;;;;2.90;2.10;;;;;;;;;;5085860;28;20206;-60
2023/08/09 00:17:43;;;;;;;2.40;2.20;;;;;;;;;;5088314;28;20213;-61
2023/08/09 00:20:11;;;;;;;1.92;1.83;;;;;;;;;;5087192;28;20210;-61
2023/08/09 00:22:38;;;;;;;2.92;2.72;;;;;;;;;;5081937;28;20242;-61
2023/08/09 00:25:06;;;;;;;4.80;2.45;;;;;;;;;;5068505;28;20230;-61
2023/08/09 00:27:33;;;;;;;2.33;2.13;;;;;;;;;;5083582;28;20301;-60
2023/08/09 00:30:00;;;;;;;2.80;2.13;;;;;;;;;;5087752;28;20772;-61
2023/08/09 00:32:28;;;;;;;2.13;2.03;;;;;;;;;;5087274;28;20229;-61
2023/08/09 00:34:56;;;;;;;2.47;2.30;;;;;;;;;;5087813;28;20202;-61
2023/08/09 00:37:23;;;;;;;2.40;2.30;;;;;;;;;;5087815;28;20296;-61
2023/08/09 00:39:50;;;;;;;2.70;2.17;;;;;;;;;;5087452;28;20851;-61
2023/08/09 00:42:17;;;;;;;2.78;2.38;;;;;;;;;;5088238;28;20213;-62
2023/08/09 00:44:44;;;;;;;2.80;2.15;;;;;;;;;;5080007;28;20246;-61
2023/08/09 00:47:12;;;;;;;2.45;2.20;;;;;;;;;;5088761;28;20209;-61
2023/08/09 00:49:41;;;;;;;2.88;2.70;;;;;;;;;;5091798;28;20202;-61
2023/08/09 00:52:08;;;;;;;4.80;2.75;;;;;;;;;;5091721;28;20256;-61
2023/08/09 00:54:35;;;;;;;3.50;2.20;;;;;;;;;;5090797;28;20199;-61
2023/08/09 00:57:02;;;;;;;2.85;2.65;;;;;;;;;;5088259;28;20303;-61
2023/08/09 00:59:29;;;;;;;2.63;2.40;;;;;;;;;;5088963;28;20680;-61
2023/08/09 01:01:56;;;;;;;2.33;2.13;;;;;;;;;;5089132;28;20214;-61
2023/08/09 01:04:23;;;;;;;2.70;2.53;;;;;;;;;;5090019;28;20230;-61
2023/08/09 01:06:55;;;;;;;2.88;2.53;;;;;;;;;;5089162;28;20210;-61
2023/08/09 01:09:28;;;;;;;2.70;2.33;;;;;;;;;;5091609;28;20203;-61
2023/08/09 01:11:57;;;;;;;2.95;2.40;;;;;;;;;;5091708;28;20261;-60
2023/08/09 01:14:24;;;;;;;2.20;2.10;;;;;;;;;;5091190;28;20293;-60
2023/08/09 01:16:53;;;;;;;2.38;2.28;;;;;;;;;;5091074;28;20198;-61
2023/08/09 01:19:27;;;;;;;2.85;2.70;;;;;;;;;;5091227;28;20202;-60
2023/08/09 01:21:57;;;;;;;2.50;2.50;;;;;;;;;;5090149;28;20213;-61
2023/08/09 01:24:25;;;;;;;2.35;2.25;;;;;;;;;;5090845;28;20245;-61
2023/08/09 01:26:52;;;;;;;2.80;2.42;;;;;;;;;;5090684;28;20209;-61
2023/08/09 01:29:20;;;;;;;2.70;2.50;;;;;;;;;;5091163;28;20209;-61
2023/08/09 01:31:47;;;;;;;2.08;1.90;;;;;;;;;;5091114;28;20343;-60
2023/08/09 01:34:14;;;;;;;2.67;2.58;;;;;;;;;;5090439;28;20210;-61
2023/08/09 01:36:42;;;;;;;2.42;2.30;;;;;;;;;;5090449;28;20221;-61
2023/08/09 01:39:12;;;;;;;2.58;2.38;;;;;;;;;;5090914;28;20206;-61
2023/08/09 01:41:42;;;;;;;2.67;2.58;;;;;;;;;;5090978;28;20209;-61
2023/08/09 01:44:11;;;;;;;2.38;2.28;;;;;;;;;;5087019;28;20230;-61
2023/08/09 01:46:39;;;;;;;3.08;2.80;;;;;;;;;;5090407;28;20202;-60
2023/08/09 01:49:10;;;;;;;2.58;2.40;;;;;;;;;;5090429;28;20234;-60
2023/08/09 01:51:39;;;;;;;2.72;2.60;;;;;;;;;;5090087;28;20301;-61
2023/08/09 01:54:07;;;;;;;2.60;2.45;;;;;;;;;;5090427;28;20305;-61
2023/08/09 01:56:34;;;;;;;3.05;2.58;;;;;;;;;;5090035;28;20237;-61
2023/08/09 01:59:04;;;;;;;2.08;1.92;;;;;;;;;;5088850;28;20612;-61
2023/08/09 02:01:31;;;;;;;3.65;2.58;;;;;;;;;;5090464;28;20213;-61
2023/08/09 02:03:58;;;;;;;2.55;2.17;;;;;;;;;;5090429;28;20690;-61
2023/08/09 02:06:25;;;;;;;2.67;2.53;;;;;;;;;;5089485;28;20218;-61
2023/08/09 02:08:52;;;;;;;2.58;2.40;;;;;;;;;;5089813;28;20210;-61
2023/08/09 02:11:19;;;;;;;2.67;2.50;;;;;;;;;;5089944;28;20203;-61
2023/08/09 02:13:46;;;;;;;2.47;2.30;;;;;;;;;;5089866;28;20202;-61
2023/08/09 02:16:15;;;;;;;6.05;2.83;;;;;;;;;;5089486;28;20206;-61
2023/08/09 02:18:42;;;;;;;3.80;2.55;;;;;;;;;;5090290;28;20245;-60
2023/08/09 02:21:10;;;;;;;4.32;2.72;;;;;;;;;;5089772;28;20216;-61
2023/08/09 02:23:37;;;;;;;2.58;2.35;;;;;;;;;;5089386;28;20203;-60
2023/08/09 02:26:04;;;;;;;3.08;2.80;;;;;;;;;;5089866;28;20225;-61
2023/08/09 02:28:32;;;;;;;3.15;2.95;;;;;;;;;;5089679;28;20202;-61
2023/08/09 02:30:59;;;;;;;3.03;2.72;;;;;;;;;;5089540;28;20207;-61
2023/08/09 02:33:28;;;;;;;3.28;2.88;;;;;;;;;;5089202;28;20234;-60
2023/08/09 02:35:56;;;;;;;2.92;2.72;;;;;;;;;;5089653;28;20198;-60
2023/08/09 02:38:23;;;;;;;3.20;2.90;;;;;;;;;;5089522;28;20203;-61
2023/08/09 02:40:50;;;;;;;2.90;2.75;;;;;;;;;;5089320;28;20487;-61
2023/08/09 02:43:17;;;;;;;3.20;3.00;;;;;;;;;;5076768;28;20218;-60
2023/08/09 02:45:44;;;;;;;2.95;2.78;;;;;;;;;;5089276;28;20260;-60
2023/08/09 02:48:12;;;;;;;3.00;2.80;;;;;;;;;;5089553;28;20210;-61
2023/08/09 02:50:41;;;;;;;3.15;2.95;;;;;;;;;;5089417;28;20251;-60
2023/08/09 02:53:09;;;;;;;4.05;3.10;;;;;;;;;;5089033;28;20210;-61
2023/08/09 02:55:36;;;;;;;3.13;2.80;;;;;;;;;;5083991;28;20279;-60
2023/08/09 02:58:05;;;;;;;3.10;2.90;;;;;;;;;;5089325;28;20209;-61
2023/08/09 03:00:32;;;;;;;4.70;2.88;;;;;;;;;;5088981;28;20199;-61
2023/08/09 03:02:59;;;;;;;3.15;2.95;;;;;;;;;;5089079;28;20668;-61
2023/08/09 03:05:27;;;;;;;3.10;2.88;;;;;;;;;;5088880;28;20252;-60
2023/08/09 03:07:56;;;;;;;3.05;2.75;;;;;;;;;;5088715;28;20210;-61
2023/08/09 03:10:23;;;;;;;9.40;3.50;;;;;;;;;;5089000;28;20206;-60
2023/08/09 03:12:50;;;;;;;2.95;2.72;;;;;;;;;;5088699;28;20202;-60
2023/08/09 03:15:17;;;;;;;3.28;2.97;;;;;;;;;;5088159;28;20221;-60
2023/08/09 03:17:45;;;;;;;3.55;3.28;;;;;;;;;;5089042;28;20209;-60
2023/08/09 03:20:14;;;;;;;3.20;3.03;;;;;;;;;;5088633;28;20209;-60
2023/08/09 03:22:41;;;;;;;3.25;3.15;;;;;;;;;;5088856;28;20266;-61
2023/08/09 03:25:10;;;;;;;3.30;3.10;;;;;;;;;;5088298;28;20237;-61
2023/08/09 03:27:37;;;;;;;4.10;3.83;;;;;;;;;;5088627;28;20798;-61
2023/08/09 03:30:04;;;;;;;4.13;3.70;;;;;;;;;;5088351;28;20645;-61
2023/08/09 03:32:31;;;;;;;3.42;2.92;;;;;;;;;;5072028;28;20307;-61
2023/08/09 03:34:58;;;;;;;3.00;2.75;;;;;;;;;;5088096;28;20206;-60
2023/08/09 03:37:25;;;;;;;3.88;3.67;;;;;;;;;;5088150;28;20198;-61
2023/08/09 03:39:52;;;;;;;4.10;3.70;;;;;;;;;;5088242;28;20629;-60
2023/08/09 03:42:21;;;;;;;6.40;3.65;;;;;;;;;;5088134;28;20214;-61
2023/08/09 03:44:48;;;;;;;3.53;3.22;;;;;;;;;;5088038;28;20238;-60
2023/08/09 03:47:15;;;;;;;5.50;4.20;;;;;;;;;;5084145;28;20212;-60
2023/08/09 03:49:42;;;;;;;3.63;3.42;;;;;;;;;;5086371;28;20202;-61
2023/08/09 03:52:09;;;;;;;3.83;3.50;;;;;;;;;;5088215;28;20213;-60
2023/08/09 03:54:37;;;;;;;5.50;3.50;;;;;;;;;;5087850;28;20195;-60
2023/08/09 03:57:06;;;;;;;10.40;3.42;;;;;;;;;;5087999;28;20691;-60
2023/08/09 03:59:35;;;;;;;3.42;3.13;;;;;;;;;;5088492;28;20214;-61
2023/08/09 04:02:02;;;;;;;5.68;3.47;;;;;;;;;;5087253;28;20229;-61
2023/08/09 04:04:29;;;;;;;3.13;2.90;;;;;;;;;;5087682;28;20230;-61
2023/08/09 04:06:56;;;;;;;4.03;3.67;;;;;;;;;;5088039;28;20213;-60
2023/08/09 04:09:23;;;;;;;3.45;3.30;;;;;;;;;;5087996;28;20213;-61
2023/08/09 04:11:50;;;;;;;3.60;3.38;;;;;;;;;;5087834;28;20202;-60
2023/08/09 04:14:17;;;;;;;7.20;3.30;;;;;;;;;;5087715;28;20704;-60
2023/08/09 04:16:45;;;;;;;7.03;2.95;;;;;;;;;;5081036;28;20198;-60
2023/08/09 04:19:13;;;;;;;2.10;2.00;;;;;;;;;;5087861;28;20744;-60
2023/08/09 04:21:40;;;;;;;2.10;2.00;;;;;;;;;;5088227;28;20217;-61
2023/08/09 04:24:07;;;;;;;3.00;1.90;;;;;;;;;;5092210;28;20576;-60
2023/08/09 04:26:35;;;;;;;2.03;1.88;;;;;;;;;;5092399;28;20584;-60
2023/08/09 04:29:02;;;;;;;2.13;1.90;;;;;;;;;;5091784;28;20205;-60
2023/08/09 04:31:29;;;;;;;1.88;1.77;;;;;;;;;;5089826;28;20202;-60
2023/08/09 04:33:59;;;;;;;1.38;1.38;;;;;;;;;;5078754;28;20663;-61
2023/08/09 04:36:26;;;;;;;4.57;1.63;;;;;;;;;;5091949;28;20289;-61
2023/08/09 04:38:53;;;;;;;1.95;1.85;;;;;;;;;;5091850;28;20285;-60
2023/08/09 04:41:20;;;;;;;2.45;1.88;;;;;;;;;;5092433;28;20213;-60
2023/08/09 04:43:47;;;;;;;1.63;1.63;;;;;;;;;;5092030;28;20342;-60
2023/08/09 04:46:16;;;;;;;1.70;1.60;;;;;;;;;;5092097;28;20225;-60
2023/08/09 04:48:43;;;;;;;1.90;1.50;;;;;;;;;;5090073;28;20210;-61
2023/08/09 04:51:12;;;;;;;1.52;1.42;;;;;;;;;;5091486;28;20210;-60
2023/08/09 04:53:40;;;;;;;1.65;1.63;;;;;;;;;;5091318;28;20293;-60
2023/08/09 04:56:07;;;;;;;2.92;1.50;;;;;;;;;;5091660;28;20199;-61
2023/08/09 04:58:34;;;;;;;1.10;1.10;;;;;;;;;;5091456;28;20731;-60
2023/08/09 05:01:01;;;;;;;1.88;1.50;;;;;;;;;;5091239;28;20241;-60
2023/08/09 05:03:28;;;;;;;1.20;1.20;;;;;;;;;;5090851;28;20225;-64
2023/08/09 05:05:55;;;;;;;1.20;1.10;;;;;;;;;;5091735;28;20234;-63
2023/08/09 05:08:45;;;;;;;1.20;1.20;;;;;;;;;;5091441;28;20194;-64
2023/08/09 05:11:14;;;;;;;1.33;1.25;;;;;;;;;;5082774;28;20199;-64
2023/08/09 05:13:41;;;;;;;1.30;1.30;;;;;;;;;;5083799;28;20213;-65
2023/08/09 05:16:08;;;;;;;2.28;1.20;;;;;;;;;;5090046;28;20202;-65
2023/08/09 05:18:35;;;;;;;1.02;1.02;;;;;;;;;;5085455;28;20203;-65
2023/08/09 05:21:02;;;;;;;1.27;1.27;;;;;;;;;;5089304;28;20733;-65
2023/08/09 05:23:29;;;;;;;1.20;1.10;;;;;;;;;;5089149;28;20210;-65
2023/08/09 05:25:56;;;;;;;1.13;1.02;;;;;;;;;;5081329;28;20222;-64
2023/08/09 05:28:24;;;;;;;1.00;1.00;;;;;;;;;;5091413;28;20221;-65
2023/08/09 05:30:51;;;;;;;1.00;1.00;;;;;;;;;;5091272;28;20213;-65
2023/08/09 05:33:19;;;;;;;1.95;1.00;;;;;;;;;;5091057;28;20246;-64
2023/08/09 05:35:46;;;;;;;1.10;1.05;;;;;;;;;;5089103;28;20209;-65
2023/08/09 05:38:13;;;;;;;2.05;0.90;;;;;;;;;;5084855;28;20721;-64
2023/08/09 05:40:40;;;;;;;0.90;0.90;;;;;;;;;;5071474;28;20218;-65
2023/08/09 05:43:07;;;;;;;0.80;0.80;;;;;;;;;;5082357;28;20237;-65
2023/08/09 05:45:35;;;;;;;0.73;0.73;;;;;;;;;;5091162;28;20897;-65
2023/08/09 05:48:02;;;;;;;0.88;0.88;;;;;;;;;;5090901;28;20213;-64
2023/08/09 05:50:30;;;;;;;0.88;0.88;;;;;;;;;;5080517;28;20207;-65
2023/08/09 05:52:57;;;;;;;1.10;1.10;;;;;;;;;;5080059;28;20211;-65
2023/08/09 05:55:24;;;;;;;1.10;1.10;;;;;;;;;;5070979;28;20214;-65
2023/08/09 05:57:51;;;;;;;1.17;1.00;;;;;;;;;;5089251;28;20568;-65
2023/08/09 06:00:19;;;;;;;1.02;1.02;;;;;;;;;;5090358;28;20206;-64
2023/08/09 06:02:48;;;;;;;0.70;0.70;;;;;;;;;;5087584;28;20263;-65
2023/08/09 06:05:18;;;;;;;1.08;1.08;;;;;;;;;;5090817;28;20209;-65
2023/08/09 06:07:46;;;;;;;0.85;0.85;;;;;;;;;;5090486;28;20751;-66
2023/08/09 06:10:13;;;;;;;0.60;0.60;;;;;;;;;;5088742;28;20210;-65
2023/08/09 06:12:40;;;;;;;0.80;0.80;;;;;;;;;;5090644;28;20217;-63
2023/08/09 06:15:07;;;;;;;1.00;1.00;;;;;;;;;;5090006;28;20206;-65
2023/08/09 06:17:35;;;;;;;0.80;0.80;;;;;;;;;;5090238;28;20213;-64
2023/08/09 06:20:04;;;;;;;0.70;0.70;;;;;;;;;;5090507;28;20257;-64
2023/08/09 06:22:31;;;;;;;0.90;0.90;;;;;;;;;;5090070;28;20256;-65
2023/08/09 06:24:58;;;;;;;0.75;0.75;;;;;;;;;;5090172;28;20221;-65
2023/08/09 06:27:25;;;;;;;0.73;0.73;;;;;;;;;;5089605;28;20226;-64
2023/08/09 06:29:52;;;;;;;0.80;0.80;;;;;;;;;;5090529;28;20214;-64
2023/08/09 06:32:19;;;;;;;0.63;0.63;;;;;;;;;;5089831;28;20230;-63
2023/08/09 06:34:47;;;;;;;0.70;0.70;;;;;;;;;;5089786;28;20211;-64
2023/08/09 06:37:15;;;;;;;0.68;0.68;;;;;;;;;;5089834;28;20202;-63
2023/08/09 06:39:42;;;;;;;0.90;0.90;;;;;;;;;;5088548;28;20206;-63
2023/08/09 06:42:11;;;;;;;0.85;0.85;;;;;;;;;;5075952;28;20238;-64
2023/08/09 06:44:38;;;;;;;0.95;0.95;;;;;;;;;;5089242;28;20743;-64
2023/08/09 06:47:06;;;;;;;0.60;0.60;;;;;;;;;;5082049;28;20227;-63
2023/08/09 06:49:33;;;;;;;0.80;0.80;;;;;;;;;;5077997;28;20205;-62
2023/08/09 06:52:00;;;;;;;0.80;0.80;;;;;;;;;;5083894;28;20243;-62
2023/08/09 06:54:29;;;;;;;0.73;0.73;;;;;;;;;;5084204;28;20323;-62
2023/08/09 06:56:56;;;;;;;0.80;0.80;;;;;;;;;;5086993;28;20206;-62
2023/08/09 06:59:23;;;;;;;0.77;0.77;;;;;;;;;;5078812;28;20202;-62
2023/08/09 07:01:50;;;;;;;1.77;0.70;;;;;;;;;;5089160;28;20198;-62
2023/08/09 07:04:17;;;;;;;0.75;0.75;;;;;;;;;;5089388;28;20206;-63
2023/08/09 07:06:50;;;;;;;0.90;0.90;;;;;;;;;;5089218;28;20281;-61
2023/08/09 07:09:18;;;;;;;0.75;0.75;;;;;;;;;;5083227;28;20207;-61
2023/08/09 07:11:47;;;;;;;0.68;0.68;;;;;;;;;;5087848;28;20221;-61
2023/08/09 07:14:14;;;;;;;0.80;0.80;;;;;;;;;;5086746;28;20202;-63
2023/08/09 07:16:41;;;;;;;0.70;0.70;;;;;;;;;;5089417;28;20249;-63
2023/08/09 07:19:08;;;;;;;0.57;0.57;;;;;;;;;;5089044;28;20304;-62
2023/08/09 07:21:35;;;;;;;0.60;0.60;;;;;;;;;;5088699;28;20305;-63
2023/08/09 07:24:02;;;;;;;0.88;0.88;;;;;;;;;;5089093;28;20214;-63
2023/08/09 07:26:29;;;;;;;0.70;0.70;;;;;;;;;;5088875;28;20229;-61
2023/08/09 07:28:57;;;;;;;0.80;0.80;;;;;;;;;;5088661;28;20210;-63
2023/08/09 07:31:25;;;;;;;0.73;0.73;;;;;;;;;;5087202;28;20198;-64
2023/08/09 07:33:52;;;;;;;0.60;0.60;;;;;;;;;;5088422;28;20667;-62
2023/08/09 07:36:20;;;;;;;0.80;0.80;;;;;;;;;;5088789;28;20209;-62
2023/08/09 07:38:47;;;;;;;0.55;0.55;;;;;;;;;;5076265;28;20203;-62
2023/08/09 07:41:14;;;;;;;0.65;0.65;;;;;;;;;;5074957;28;20214;-61
2023/08/09 07:43:41;;;;;;;0.70;0.70;;;;;;;;;;5088737;28;20234;-60
2023/08/09 07:46:10;;;;;;;0.60;0.60;;;;;;;;;;5088900;28;20490;-61
2023/08/09 07:48:37;;;;;;;0.70;0.70;;;;;;;;;;5088669;28;20692;-61
2023/08/09 07:51:06;;;;;;;0.82;0.82;;;;;;;;;;5087788;28;20198;-61
2023/08/09 07:53:33;;;;;;;0.88;0.88;;;;;;;;;;5088605;28;20204;-61
2023/08/09 07:56:00;;;;;;;0.85;0.80;;;;;;;;;;5088549;28;20195;-61
2023/08/09 07:58:27;;;;;;;0.85;0.82;;;;;;;;;;5088328;28;20206;-61
2023/08/09 08:00:54;;;;;;;0.60;0.60;;;;;;;;;;5088235;28;20214;-61
2023/08/09 08:03:23;;;;;;;0.60;0.60;;;;;;;;;;5087914;28;20582;-62
2023/08/09 08:05:51;;;;;;;0.90;0.90;;;;;;;;;;5088699;28;20274;-61
2023/08/09 08:08:18;;;;;;;0.80;0.80;;;;;;;;;;5088254;28;20213;-61
2023/08/09 08:10:45;;;;;;;0.70;0.70;;;;;;;;;;5088285;28;20867;-61
2023/08/09 08:13:13;;;;;;;0.77;0.77;;;;;;;;;;5088161;28;20218;-61
2023/08/09 08:15:40;;;;;;;1.00;1.00;;;;;;;;;;5088083;28;20287;-61
2023/08/09 08:18:07;;;;;;;1.38;0.70;;;;;;;;;;5088102;28;20202;-62
2023/08/09 08:20:35;;;;;;;0.80;0.80;;;;;;;;;;5088108;28;20203;-61
2023/08/09 08:23:04;;;;;;;1.00;0.82;;;;;;;;;;5087625;28;20232;-61
2023/08/09 08:25:31;;;;;;;0.60;0.60;;;;;;;;;;5087917;28;20633;-61
2023/08/09 08:27:58;;;;;;;0.55;0.55;;;;;;;;;;5084176;28;20222;-62
2023/08/09 08:30:25;;;;;;;0.77;0.77;;;;;;;;;;5083844;28;20202;-61
2023/08/09 08:32:52;;;;;;;0.80;0.80;;;;;;;;;;5087276;28;20226;-62
2023/08/09 08:35:20;;;;;;;0.85;0.85;;;;;;;;;;5088239;28;20233;-62
2023/08/09 08:37:49;;;;;;;1.88;0.85;;;;;;;;;;5087212;28;20206;-62
2023/08/09 08:40:19;;;;;;;0.52;0.52;;;;;;;;;;5088039;28;20284;-61
2023/08/09 08:42:46;;;;;;;0.40;0.40;;;;;;;;;;5087351;28;20340;-61
2023/08/09 08:45:15;;;;;;;0.30;0.30;;;;;;;;;;5088123;28;20210;-61
2023/08/09 08:47:42;;;;;;;0.38;0.38;;;;;;;;;;5087893;28;20232;-61
2023/08/09 08:50:11;;;;;;;0.30;0.30;;;;;;;;;;5087987;28;20206;-61
2023/08/09 08:52:39;;;;;;;0.20;0.20;;;;;;;;;;5087186;28;20218;-61
2023/08/09 08:55:09;;;;;;;1.45;0.22;;;;;;;;;;5087853;28;20202;-62
2023/08/09 08:57:37;;;;;;;0.20;0.20;;;;;;;;;;5087986;28;20752;-61
2023/08/09 09:00:08;;;;;;;0.10;0.10;;;;;;;;;;5082704;28;20672;-61
2023/08/09 09:02:35;;;;;;;0.30;0.30;;;;;;;;;;5084876;28;20207;-61
2023/08/09 09:05:02;;;;;;;0.20;0.20;;;;;;;;;;5086859;28;20554;-61
2023/08/09 09:07:30;;;;;;;1.65;0.30;;;;;;;;;;5083989;28;20600;-61
2023/08/09 09:09:58;;;;;;;0.30;0.30;;;;;;;;;;5085248;28;20202;-61
2023/08/09 09:12:27;;;;;;;0.20;0.20;;;;;;;;;;5090898;28;20206;-61
2023/08/09 09:14:54;;;;;;;0.25;0.25;;;;;;;;;;5086325;28;20210;-61
2023/08/09 09:17:21;;;;;;;0.32;0.32;;;;;;;;;;5088756;28;20213;-61
2023/08/09 09:19:48;;;;;;;0.10;0.10;;;;;;;;;;5077254;28;20203;-61
2023/08/09 09:22:26;;;;;;;0.55;0.30;;;;;;;;;;5083316;28;20210;-61
2023/08/09 09:24:53;;;;;;;2.25;0.20;;;;;;;;;;5091565;28;20234;-61
2023/08/09 09:27:28;;;;;;;1.65;0.30;;;;;;;;;;5091157;28;20223;-61
2023/08/09 09:29:55;;;;;;;0.20;0.20;;;;;;;;;;5091514;28;20202;-61
2023/08/09 09:32:22;;;;;;;0.13;0.13;;;;;;;;;;5082992;28;20238;-62
2023/08/09 09:34:51;;;;;;;0.25;0.25;;;;;;;;;;5090972;28;20214;-62
2023/08/09 09:37:25;;;;;;;0.20;0.20;;;;;;;;;;5089050;28;20226;-62
2023/08/09 09:39:52;;;;;;;0.20;0.20;;;;;;;;;;5090783;28;20247;-61
2023/08/09 09:42:30;;;;;;;0.13;0.13;;;;;;;;;;5090849;28;20276;-62
2023/08/09 09:45:04;;;;;;;0.20;0.20;;;;;;;;;;5090740;28;20210;-62
2023/08/09 09:47:34;;;;;;;0.38;0.38;;;;;;;;;;5071951;28;20492;-58
2023/08/09 09:50:01;;;;;;;0.22;0.22;;;;;;;;;;5081858;28;20230;-59
2023/08/09 09:52:30;;;;;;;0.20;0.20;;;;;;;;;;5090288;28;20210;-58
2023/08/09 09:54:57;;;;;;;0.68;0.28;;;;;;;;;;5090669;28;20209;-58
2023/08/09 09:57:24;;;;;;;0.20;0.20;;;;;;;;;;5091087;28;20256;-59
2023/08/09 09:59:52;;;;;;;0.20;0.20;;;;;;;;;;5089563;28;20203;-58
2023/08/09 10:02:20;;;;;;;0.20;0.20;;;;;;;;;;5090296;28;20289;-60
2023/08/09 10:04:48;;;;;;;0.30;0.30;;;;;;;;;;5090274;28;20202;-63
2023/08/09 10:07:15;;;;;;;0.20;0.20;;;;;;;;;;5090546;28;20237;-58
2023/08/09 10:09:42;;;;;;;608.10;382.27;;;;;;;;;;5090418;28;20214;-59
2023/08/09 10:12:09;;;;;;;59.47;34.83;;;;;;;;;;5089981;28;20680;-60
2023/08/09 10:14:37;;;;;;;26.17;15.07;;;;;;;;;;5090598;28;20210;-60
2023/08/09 10:17:04;;;;;;;2.17;2.05;;;;;;;;;;5089983;28;20226;-61
2023/08/09 10:19:33;;;;;;;19.30;11.02;;;;;;;;;;5089366;28;20207;-62
2023/08/09 10:22:02;;;;;;;7.18;5.28;;;;;;;;;;5078727;28;20754;-61
2023/08/09 10:24:30;;;;;;;2.28;1.95;;;;;;;;;;5087249;28;20217;-61
2023/08/09 10:27:01;;;;;;;0.80;0.80;;;;;;;;;;5088811;28;20592;-61
2023/08/09 10:29:29;;;;;;;3.17;2.72;;;;;;;;;;5088933;28;20248;-61
2023/08/09 10:31:59;;;;;;;0.95;0.95;;;;;;;;;;5084865;28;20238;-61
2023/08/09 10:34:35;;;;;;;4.03;3.15;;;;;;;;;;5087336;28;20210;-61
2023/08/09 10:37:02;;;;;;;1.27;1.23;;;;;;;;;;5087929;28;20860;-62
2023/08/09 10:39:30;;;;;;;1.33;1.23;;;;;;;;;;5070712;28;20207;-61
2023/08/09 10:42:00;;;;;;;1.00;1.00;;;;;;;;;;5068771;28;20211;-61
2023/08/09 10:44:34;;;;;;;1.20;1.20;;;;;;;;;;5068424;28;20234;-61
2023/08/09 10:47:03;;;;;;;0.47;0.47;;;;;;;;;;5079054;28;20413;-61
2023/08/09 10:49:35;;;;;;;0.82;0.82;;;;;;;;;;5081468;28;20691;-61
2023/08/09 10:52:12;;;;;;;0.30;0.30;;;;;;;;;;5087786;28;20629;-64
2023/08/09 10:54:39;;;;;;;0.30;0.30;;;;;;;;;;5086697;28;20217;-61
2023/08/09 10:57:09;;;;;;;0.55;0.55;;;;;;;;;;5078216;28;20211;-61
2023/08/09 10:59:37;;;;;;;1.33;0.95;;;;;;;;;;5071734;28;20215;-61
2023/08/09 11:02:05;;;;;;;1.70;0.70;;;;;;;;;;5068504;28;20283;-61
2023/08/09 11:04:32;;;;;;;0.22;0.22;;;;;;;;;;5068794;28;20215;-61
2023/08/09 11:07:00;;;;;;;0.38;0.38;;;;;;;;;;5068268;28;20239;-61
2023/08/09 11:09:27;;;;;;;0.88;0.45;;;;;;;;;;5070114;28;20209;-61
2023/08/09 11:11:55;;;;;;;0.50;0.50;;;;;;;;;;5088385;28;20203;-61
2023/08/09 11:14:23;;;;;;;0.30;0.30;;;;;;;;;;5088789;28;20210;-61
2023/08/09 11:16:51;;;;;;;0.40;0.40;;;;;;;;;;5088690;28;20238;-61
2023/08/09 11:19:18;;;;;;;0.20;0.20;;;;;;;;;;5088488;28;20206;-61
2023/08/09 11:21:46;;;;;;;0.25;0.25;;;;;;;;;;5088228;28;20225;-61
2023/08/09 11:24:19;;;;;;;0.30;0.30;;;;;;;;;;5088508;28;20279;-61
2023/08/09 11:26:48;;;;;;;0.30;0.30;;;;;;;;;;5087864;28;20577;-61
2023/08/09 11:29:16;;;;;;;0.40;0.40;;;;;;;;;;5087892;28;20269;-62
2023/08/09 11:31:43;;;;;;;1.00;0.38;;;;;;;;;;5082584;28;20255;-61
2023/08/09 11:34:11;;;;;;;0.38;0.30;;;;;;;;;;5077592;28;20912;-61
2023/08/09 11:36:40;;;;;;;0.30;0.30;;;;;;;;;;5084134;28;20206;-62
2023/08/09 11:39:08;;;;;;;0.40;0.40;;;;;;;;;;5086360;28;20207;-63
2023/08/09 11:41:42;;;;;;;0.30;0.30;;;;;;;;;;5073246;28;20301;-60
2023/08/09 11:44:11;;;;;;;0.40;0.40;;;;;;;;;;5088190;28;20226;-60
2023/08/09 11:46:40;;;;;;;0.28;0.28;;;;;;;;;;5077242;28;20253;-62
2023/08/09 11:49:07;;;;;;;0.30;0.30;;;;;;;;;;5084365;28;20646;-61
2023/08/09 11:51:35;;;;;;;0.32;0.32;;;;;;;;;;5087279;28;20206;-62
2023/08/09 11:54:03;;;;;;;0.20;0.20;;;;;;;;;;5075763;28;20206;-63
2023/08/09 11:56:32;;;;;;;0.28;0.28;;;;;;;;;;5086696;28;20256;-62
2023/08/09 11:59:02;;;;;;;0.30;0.30;;;;;;;;;;5087844;28;20724;-62
2023/08/09 12:01:29;;;;;;;0.30;0.30;;;;;;;;;;5085021;28;20206;-60
2023/08/09 12:03:57;;;;;;;0.45;0.45;;;;;;;;;;5086879;28;20213;-60
2023/08/09 12:06:42;;;;;;;0.30;0.30;;;;;;;;;;5085792;28;20209;-62
2023/08/09 12:09:30;;;;;;;1.50;0.57;;;;;;;;;;5069612;28;20226;-60
2023/08/09 12:11:58;;;;;;;0.25;0.25;;;;;;;;;;5086618;28;20206;-60
2023/08/09 12:14:26;;;;;;;0.30;0.30;;;;;;;;;;5087891;28;20201;-60
2023/08/09 12:16:53;;;;;;;0.30;0.30;;;;;;;;;;5083852;28;20207;-62
2023/08/09 12:19:20;;;;;;;0.30;0.30;;;;;;;;;;5086862;28;20803;-60
2023/08/09 12:21:47;;;;;;;0.65;0.50;;;;;;;;;;5087578;28;20206;-62
2023/08/09 12:24:14;;;;;;;0.28;0.28;;;;;;;;;;5079068;28;20199;-62
2023/08/09 12:26:42;;;;;;;0.50;0.50;;;;;;;;;;5083594;28;20213;-60
2023/08/09 12:29:09;;;;;;;0.30;0.30;;;;;;;;;;5086729;28;21031;-59
2023/08/09 12:31:38;;;;;;;0.30;0.30;;;;;;;;;;5082265;28;20241;-62
2023/08/09 12:34:08;;;;;;;0.22;0.22;;;;;;;;;;5083190;28;20548;-62
2023/08/09 12:36:35;;;;;;;0.30;0.30;;;;;;;;;;5087334;28;20206;-62
2023/08/09 12:39:03;;;;;;;0.30;0.30;;;;;;;;;;5083755;28;20198;-62
2023/08/09 12:41:31;;;;;;;0.30;0.30;;;;;;;;;;5083186;28;20260;-59
2023/08/09 12:43:59;;;;;;;0.30;0.30;;;;;;;;;;5086024;28;20232;-61
2023/08/09 12:46:44;;;;;;;0.30;0.30;;;;;;;;;;5078066;28;20206;-58
2023/08/09 12:49:12;;;;;;;0.40;0.40;;;;;;;;;;5086785;28;20229;-57
2023/08/09 12:51:40;;;;;;;0.20;0.20;;;;;;;;;;5085229;28;20222;-60
2023/08/09 12:54:07;;;;;;;0.40;0.40;;;;;;;;;;5075966;28;20199;-59
2023/08/09 12:56:34;;;;;;;0.20;0.20;;;;;;;;;;5086867;28;20249;-58
2023/08/09 12:59:01;;;;;;;1.10;0.32;;;;;;;;;;5084130;28;20214;-57
2023/08/09 13:01:28;;;;;;;0.20;0.20;;;;;;;;;;5081618;28;20207;-59
2023/08/09 13:03:56;;;;;;;0.40;0.40;;;;;;;;;;5077152;28;20228;-58
2023/08/09 13:06:24;;;;;;;0.28;0.28;;;;;;;;;;5083839;28;20202;-58
2023/08/09 13:08:51;;;;;;;0.30;0.30;;;;;;;;;;5088679;28;20230;-57
2023/08/09 13:11:19;;;;;;;0.40;0.40;;;;;;;;;;5088762;28;20245;-57
2023/08/09 13:13:46;;;;;;;0.30;0.30;;;;;;;;;;5090655;28;20213;-58
2023/08/09 13:16:13;;;;;;;0.45;0.45;;;;;;;;;;5090654;28;20296;-57
2023/08/09 13:18:40;;;;;;;0.40;0.40;;;;;;;;;;5090531;28;20198;-58
2023/08/09 13:21:11;;;;;;;0.30;0.30;;;;;;;;;;5090582;28;20237;-59
2023/08/09 13:23:39;;;;;;;0.28;0.28;;;;;;;;;;5080105;28;20662;-58
2023/08/09 13:26:06;;;;;;;0.30;0.30;;;;;;;;;;5083112;28;20213;-57
2023/08/09 13:28:33;;;;;;;0.30;0.30;;;;;;;;;;5083613;28;20226;-58
2023/08/09 13:31:01;;;;;;;0.30;0.30;;;;;;;;;;5082511;28;20650;-58
2023/08/09 13:33:28;;;;;;;0.30;0.30;;;;;;;;;;5090369;28;20234;-58
2023/08/09 13:35:55;;;;;;;0.47;0.47;;;;;;;;;;5080219;28;20293;-58
2023/08/09 13:38:28;;;;;;;0.38;0.30;;;;;;;;;;5087576;28;20771;-57
2023/08/09 13:40:58;;;;;;;0.30;0.30;;;;;;;;;;5081432;28;20585;-58
2023/08/09 13:43:25;;;;;;;0.80;0.30;;;;;;;;;;5090258;28;20225;-58
2023/08/09 13:45:52;;;;;;;0.35;0.35;;;;;;;;;;5090345;28;20202;-58
2023/08/09 13:48:19;;;;;;;0.43;0.43;;;;;;;;;;5090181;28;20230;-58
2023/08/09 13:50:47;;;;;;;0.30;0.30;;;;;;;;;;5089790;28;20203;-58
2023/08/09 13:53:14;;;;;;;0.50;0.50;;;;;;;;;;5080795;28;20704;-58
2023/08/09 13:55:42;;;;;;;0.40;0.40;;;;;;;;;;5076534;28;20217;-57
2023/08/09 13:58:11;;;;;;;0.30;0.30;;;;;;;;;;5090379;28;20202;-58
2023/08/09 14:00:38;;;;;;;0.25;0.25;;;;;;;;;;5090437;28;20217;-58
2023/08/09 14:03:06;;;;;;;0.40;0.40;;;;;;;;;;5070550;28;20306;-58
2023/08/09 14:05:33;;;;;;;0.30;0.30;;;;;;;;;;5070159;28;20223;-58
2023/08/09 14:08:00;;;;;;;0.30;0.30;;;;;;;;;;5073882;28;20231;-58
2023/08/09 14:10:27;;;;;;;0.35;0.35;;;;;;;;;;5087855;28;20202;-58
2023/08/09 14:12:54;;;;;;;0.43;0.43;;;;;;;;;;5087449;28;20212;-58
2023/08/09 14:15:22;;;;;;;1.45;0.32;;;;;;;;;;5087255;28;20213;-58
2023/08/09 14:17:48;;;;;;;0.40;0.40;;;;;;;;;;5086460;28;20407;-58
2023/08/09 14:20:16;;;;;;;0.50;0.50;;;;;;;;;;5086335;28;20766;-58
2023/08/09 14:22:43;;;;;;;0.40;0.40;;;;;;;;;;5089041;28;20214;-58
2023/08/09 14:25:10;;;;;;;0.43;0.43;;;;;;;;;;5089076;28;20607;-58
2023/08/09 14:27:38;;;;;;;1.10;0.38;;;;;;;;;;5088246;28;20203;-58
2023/08/09 14:30:05;;;;;;;0.30;0.30;;;;;;;;;;5088841;28;20210;-57
2023/08/09 14:32:34;;;;;;;0.20;0.20;;;;;;;;;;5088693;28;20234;-58
2023/08/09 14:35:01;;;;;;;0.47;0.47;;;;;;;;;;5088696;28;20533;-58
2023/08/09 14:37:28;;;;;;;0.60;0.60;;;;;;;;;;5088583;28;20206;-58
2023/08/09 14:39:55;;;;;;;0.35;0.35;;;;;;;;;;5088286;28;20205;-58
2023/08/09 14:42:22;;;;;;;0.22;0.22;;;;;;;;;;5088645;28;20214;-58
2023/08/09 14:44:49;;;;;;;0.50;0.50;;;;;;;;;;5088162;28;20241;-58
2023/08/09 14:47:16;;;;;;;0.43;0.43;;;;;;;;;;5087847;28;20692;-58